Time;durP1;ratioP1;P1;durP2;ratioP2;P2;SDS_P1;SDS_P2;PMS_P1;PMS_P2;Temp;Humidity;BMP_temperature;BMP_pressure;BME280_temperature;BME280_humidity;BME280_pressure;Samples;Min_cycle;Max_cycle;Signal;HPM_P1;HPM_P2
2022/08/13 00:01:20;;;;;;;3.80;1.80;;;;;;;;;;5035485;28;20403;-70
2022/08/13 00:03:46;;;;;;;2.27;2.17;;;;;;;;;;5035374;28;20436;-70
2022/08/13 00:06:18;;;;;;;1.90;1.80;;;;;;;;;;5035403;28;20440;-71
2022/08/13 00:08:48;;;;;;;1.73;1.50;;;;;;;;;;5035415;28;20938;-69
2022/08/13 00:12:56;;;;;;;1.93;1.77;;;;;;;;;;5035311;28;20945;-70
2022/08/13 00:14:00;;;;;;;4.00;1.80;;;;;;;;;;5035040;28;20973;-72
2022/08/13 00:16:26;;;;;;;2.00;2.00;;;;;;;;;;5035316;28;20478;-71
2022/08/13 00:18:52;;;;;;;1.90;1.80;;;;;;;;;;5035134;28;20834;-70
2022/08/13 00:21:18;;;;;;;1.90;1.63;;;;;;;;;;5035011;28;20440;-69
2022/08/13 00:23:44;;;;;;;4.47;1.90;;;;;;;;;;5035020;28;20419;-70
2022/08/13 00:26:11;;;;;;;2.97;1.93;;;;;;;;;;5034873;28;20442;-69
2022/08/13 00:28:37;;;;;;;1.80;1.70;;;;;;;;;;5034876;28;20407;-70
2022/08/13 00:31:05;;;;;;;1.83;1.73;;;;;;;;;;5035004;28;20414;-69
2022/08/13 00:33:31;;;;;;;3.20;1.90;;;;;;;;;;5034782;28;20944;-70
2022/08/13 00:35:57;;;;;;;1.53;1.43;;;;;;;;;;5034704;28;20970;-70
2022/08/13 00:38:28;;;;;;;3.43;1.83;;;;;;;;;;5034727;28;20405;-70
2022/08/13 00:40:57;;;;;;;1.80;1.70;;;;;;;;;;5034721;28;20447;-73
2022/08/13 00:43:24;;;;;;;1.97;1.77;;;;;;;;;;5034580;28;20468;-72
2022/08/13 00:45:50;;;;;;;2.10;2.10;;;;;;;;;;5034875;28;20488;-70
2022/08/13 00:51:05;;;;;;;1.70;1.70;;;;;;;;;;5034763;28;20908;-72
2022/08/13 00:53:32;;;;;;;4.43;1.80;;;;;;;;;;5033937;28;20405;-70
2022/08/13 00:55:59;;;;;;;6.57;1.70;;;;;;;;;;5034349;28;20476;-69
2022/08/13 00:58:26;;;;;;;3.37;1.67;;;;;;;;;;5034388;28;20414;-70
2022/08/13 01:00:56;;;;;;;1.50;1.43;;;;;;;;;;5034342;28;20557;-70
2022/08/13 01:03:23;;;;;;;1.50;1.50;;;;;;;;;;5034599;28;20408;-69
2022/08/13 01:05:49;;;;;;;1.37;1.37;;;;;;;;;;5034462;28;20845;-69
2022/08/13 01:08:17;;;;;;;1.60;1.50;;;;;;;;;;5034458;28;20406;-72
2022/08/13 01:10:44;;;;;;;5.90;1.77;;;;;;;;;;5034184;28;20407;-69
2022/08/13 01:13:11;;;;;;;1.40;1.30;;;;;;;;;;5034072;28;20436;-70
2022/08/13 01:15:38;;;;;;;3.43;1.10;;;;;;;;;;5034088;28;20471;-72
2022/08/13 01:18:04;;;;;;;3.13;1.43;;;;;;;;;;5034052;28;20499;-70
2022/08/13 01:20:32;;;;;;;1.40;1.40;;;;;;;;;;5034012;28;20451;-70
2022/08/13 01:22:58;;;;;;;1.40;1.30;;;;;;;;;;5033997;28;20404;-70
2022/08/13 01:25:25;;;;;;;1.70;1.50;;;;;;;;;;5034157;28;20408;-70
2022/08/13 01:27:52;;;;;;;1.23;1.23;;;;;;;;;;5033664;28;20492;-72
2022/08/13 01:30:19;;;;;;;4.00;1.50;;;;;;;;;;5034102;28;20574;-71
2022/08/13 01:32:45;;;;;;;1.63;1.63;;;;;;;;;;5033705;28;20882;-70
2022/08/13 01:35:12;;;;;;;1.60;1.50;;;;;;;;;;5033721;28;20463;-69
2022/08/13 01:37:38;;;;;;;1.43;1.43;;;;;;;;;;5033612;28;20429;-69
2022/08/13 01:40:06;;;;;;;1.90;1.57;;;;;;;;;;5033906;28;20409;-69
2022/08/13 01:42:43;;;;;;;6.90;1.83;;;;;;;;;;5033611;28;20497;-69
2022/08/13 01:45:10;;;;;;;1.60;1.50;;;;;;;;;;5033562;28;20876;-69
2022/08/13 01:50:30;;;;;;;1.20;1.20;;;;;;;;;;5033634;28;20410;-70
2022/08/13 01:53:05;;;;;;;1.50;1.40;;;;;;;;;;5033514;28;20423;-70
2022/08/13 01:55:39;;;;;;;3.13;1.47;;;;;;;;;;5033425;28;20474;-72
2022/08/13 01:58:22;;;;;;;1.70;1.70;;;;;;;;;;5033452;28;20405;-70
2022/08/13 02:00:50;;;;;;;1.57;1.57;;;;;;;;;;5033418;28;20404;-70
2022/08/13 02:03:17;;;;;;;3.40;1.40;;;;;;;;;;5033398;28;20413;-73
2022/08/13 02:05:44;;;;;;;1.53;1.53;;;;;;;;;;5032457;28;20406;-69
2022/08/13 02:08:11;;;;;;;1.40;1.40;;;;;;;;;;5033335;28;20405;-72
2022/08/13 02:10:42;;;;;;;5.40;1.50;;;;;;;;;;5033329;28;20409;-70
2022/08/13 02:13:13;;;;;;;1.27;1.27;;;;;;;;;;5033356;28;20435;-71
2022/08/13 02:15:39;;;;;;;4.13;1.80;;;;;;;;;;5033463;28;20468;-70
2022/08/13 02:18:07;;;;;;;1.53;1.50;;;;;;;;;;5033260;28;20456;-69
2022/08/13 02:20:34;;;;;;;3.43;1.73;;;;;;;;;;5033313;28;20910;-69
2022/08/13 02:23:03;;;;;;;1.63;1.57;;;;;;;;;;5033483;28;20410;-69
2022/08/13 02:25:29;;;;;;;1.93;1.53;;;;;;;;;;5033184;28;20401;-69
2022/08/13 02:27:56;;;;;;;1.97;1.63;;;;;;;;;;5033174;28;20435;-69
2022/08/13 02:30:24;;;;;;;10.77;7.80;;;;;;;;;;5033192;28;20763;-69
2022/08/13 02:32:51;;;;;;;1.73;1.63;;;;;;;;;;5033280;28;20404;-70
2022/08/13 02:35:18;;;;;;;3.23;2.30;;;;;;;;;;5033059;28;20461;-71
2022/08/13 02:37:44;;;;;;;1.37;1.37;;;;;;;;;;5034160;28;20882;-70
2022/08/13 02:42:56;;;;;;;1.87;1.67;;;;;;;;;;5033852;28;20839;-72
2022/08/13 02:45:23;;;;;;;2.20;1.60;;;;;;;;;;5033655;28;20890;-69
2022/08/13 02:47:49;;;;;;;1.70;1.70;;;;;;;;;;5034293;28;20416;-69
2022/08/13 02:50:15;;;;;;;1.50;1.50;;;;;;;;;;5033638;28;20440;-70
2022/08/13 02:52:41;;;;;;;1.80;1.70;;;;;;;;;;5032962;28;20498;-69
2022/08/13 02:55:08;;;;;;;1.73;1.73;;;;;;;;;;5032858;28;20473;-69
2022/08/13 02:57:34;;;;;;;1.70;1.47;;;;;;;;;;5033149;28;20526;-71
2022/08/13 03:00:03;;;;;;;2.00;1.90;;;;;;;;;;5032836;28;20517;-70
2022/08/13 03:02:31;;;;;;;2.10;1.67;;;;;;;;;;5032794;28;20728;-71
2022/08/13 03:04:59;;;;;;;1.80;1.80;;;;;;;;;;5032889;28;20414;-70
2022/08/13 03:07:26;;;;;;;2.20;1.63;;;;;;;;;;5032862;28;20411;-71
2022/08/13 03:09:52;;;;;;;3.03;1.70;;;;;;;;;;5032802;28;20417;-73
2022/08/13 03:12:20;;;;;;;3.33;1.80;;;;;;;;;;5032816;28;20420;-69
2022/08/13 03:14:46;;;;;;;2.00;1.90;;;;;;;;;;5032738;28;20428;-71
2022/08/13 03:17:12;;;;;;;1.87;1.87;;;;;;;;;;5035272;28;20440;-72
2022/08/13 03:19:38;;;;;;;1.47;1.47;;;;;;;;;;5036319;28;20891;-71
2022/08/13 03:22:05;;;;;;;1.80;1.80;;;;;;;;;;5036174;28;20413;-71
2022/08/13 03:24:31;;;;;;;3.57;1.97;;;;;;;;;;5036297;28;20490;-70
2022/08/13 03:26:57;;;;;;;1.73;1.63;;;;;;;;;;5036135;28;20847;-70
2022/08/13 03:29:24;;;;;;;1.73;1.63;;;;;;;;;;5036106;28;20892;-69
2022/08/13 03:31:50;;;;;;;2.00;1.90;;;;;;;;;;5036323;28;20412;-70
2022/08/13 03:34:17;;;;;;;1.50;1.50;;;;;;;;;;5036016;28;20409;-69
2022/08/13 03:36:43;;;;;;;1.90;1.53;;;;;;;;;;5035947;28;20490;-73
2022/08/13 03:39:09;;;;;;;1.60;1.50;;;;;;;;;;5035967;28;20487;-70
2022/08/13 03:41:36;;;;;;;2.13;1.87;;;;;;;;;;5036015;28;20418;-70
2022/08/13 03:44:03;;;;;;;1.73;1.73;;;;;;;;;;5035785;28;20451;-71
2022/08/13 03:46:29;;;;;;;1.50;1.50;;;;;;;;;;5035852;28;20402;-70
2022/08/13 03:48:55;;;;;;;2.73;1.90;;;;;;;;;;5018363;28;20466;-73
2022/08/13 03:51:23;;;;;;;1.77;1.53;;;;;;;;;;5035768;28;20412;-74
2022/08/13 03:53:49;;;;;;;2.43;1.60;;;;;;;;;;5035669;28;20399;-73
2022/08/13 03:56:17;;;;;;;2.03;1.33;;;;;;;;;;5035886;28;20476;-72
2022/08/13 03:58:44;;;;;;;1.40;1.40;;;;;;;;;;5035692;28;20408;-73
2022/08/13 04:01:10;;;;;;;1.60;1.50;;;;;;;;;;5035658;28;20424;-73
2022/08/13 04:03:40;;;;;;;1.80;1.70;;;;;;;;;;5036372;28;20497;-72
2022/08/13 04:06:16;;;;;;;1.33;1.33;;;;;;;;;;5047872;28;20426;-73
2022/08/13 04:08:47;;;;;;;1.50;1.50;;;;;;;;;;5050722;28;20401;-73
2022/08/13 04:11:14;;;;;;;1.60;1.50;;;;;;;;;;5047623;28;20822;-73
2022/08/13 04:13:40;;;;;;;2.00;1.50;;;;;;;;;;5049787;28;20400;-73
2022/08/13 04:16:07;;;;;;;1.20;1.20;;;;;;;;;;5046502;28;20499;-73
2022/08/13 04:18:36;;;;;;;2.10;1.67;;;;;;;;;;5045314;28;20440;-73
2022/08/13 04:21:06;;;;;;;1.27;1.27;;;;;;;;;;5043523;28;20419;-73
2022/08/13 04:23:39;;;;;;;1.73;1.73;;;;;;;;;;5043964;28;20411;-72
2022/08/13 04:26:05;;;;;;;1.33;1.23;;;;;;;;;;5043334;28;20928;-72
2022/08/13 04:28:31;;;;;;;1.53;1.47;;;;;;;;;;5039961;28;20410;-72
2022/08/13 04:30:58;;;;;;;1.80;1.70;;;;;;;;;;5039929;28;20436;-73
2022/08/13 04:33:26;;;;;;;5.23;1.90;;;;;;;;;;5037913;28;20401;-74
2022/08/13 04:35:51;;;;;;;1.40;1.40;;;;;;;;;;5038059;28;20469;-72
2022/08/13 04:38:17;;;;;;;2.60;1.70;;;;;;;;;;5035018;28;20406;-70
2022/08/13 04:40:45;;;;;;;2.60;1.50;;;;;;;;;;5035029;28;20420;-72
2022/08/13 04:43:12;;;;;;;1.30;1.30;;;;;;;;;;5034897;28;20464;-72
2022/08/13 04:45:39;;;;;;;1.50;1.50;;;;;;;;;;5034894;28;20407;-72
2022/08/13 04:48:09;;;;;;;1.90;1.80;;;;;;;;;;5034788;28;20399;-71
2022/08/13 04:50:35;;;;;;;2.30;1.87;;;;;;;;;;5034655;28;20430;-69
2022/08/13 04:53:02;;;;;;;1.70;1.70;;;;;;;;;;5034719;28;20411;-70
2022/08/13 04:55:29;;;;;;;2.50;1.63;;;;;;;;;;5034519;28;20486;-71
2022/08/13 04:57:55;;;;;;;1.50;1.40;;;;;;;;;;5034661;28;20936;-70
2022/08/13 05:00:24;;;;;;;1.50;1.50;;;;;;;;;;5034640;28;20408;-70
2022/08/13 05:02:52;;;;;;;3.33;1.87;;;;;;;;;;5034607;28;20418;-72
2022/08/13 05:05:18;;;;;;;1.30;1.30;;;;;;;;;;5034459;28;20441;-71
2022/08/13 05:07:47;;;;;;;2.50;1.53;;;;;;;;;;5034805;28;20546;-70
2022/08/13 05:10:13;;;;;;;2.67;1.63;;;;;;;;;;5034691;28;20952;-74
2022/08/13 05:12:39;;;;;;;1.30;1.30;;;;;;;;;;5034521;28;20452;-72
2022/08/13 05:15:08;;;;;;;2.53;2.43;;;;;;;;;;5034177;28;20477;-72
2022/08/13 05:17:34;;;;;;;5.30;4.80;;;;;;;;;;5034191;28;20900;-71
2022/08/13 05:20:00;;;;;;;6.50;6.10;;;;;;;;;;5034193;28;20405;-70
2022/08/13 05:22:28;;;;;;;3.07;2.00;;;;;;;;;;5034241;28;20410;-70
2022/08/13 05:24:54;;;;;;;3.80;3.60;;;;;;;;;;5034021;28;20385;-70
2022/08/13 05:27:20;;;;;;;2.57;2.47;;;;;;;;;;5034117;28;20423;-71
2022/08/13 05:29:47;;;;;;;3.37;3.27;;;;;;;;;;5034099;28;20404;-71
2022/08/13 05:32:13;;;;;;;2.93;2.77;;;;;;;;;;5033786;28;20405;-73
2022/08/13 05:34:39;;;;;;;2.97;2.97;;;;;;;;;;5033650;28;20433;-70
2022/08/13 05:37:15;;;;;;;1.60;1.60;;;;;;;;;;5033703;28;20413;-71
2022/08/13 05:39:42;;;;;;;2.60;2.40;;;;;;;;;;5033429;28;20953;-71
2022/08/13 05:42:08;;;;;;;2.20;2.00;;;;;;;;;;5033421;28;20905;-71
2022/08/13 05:44:35;;;;;;;1.87;1.77;;;;;;;;;;5033645;28;20405;-70
2022/08/13 05:47:00;;;;;;;2.30;1.70;;;;;;;;;;5033628;28;20440;-71
2022/08/13 05:49:26;;;;;;;2.30;1.73;;;;;;;;;;5033570;28;20436;-72
2022/08/13 05:51:52;;;;;;;2.10;1.80;;;;;;;;;;5033486;28;20406;-70
2022/08/13 05:54:19;;;;;;;1.70;1.70;;;;;;;;;;5033520;28;20401;-71
2022/08/13 05:56:45;;;;;;;9.60;1.60;;;;;;;;;;5033313;28;20991;-71
2022/08/13 06:04:40;;;;;;;3.70;2.03;;;;;;;;;;5033685;28;21013;-70
2022/08/13 06:07:09;;;;;;;1.70;1.60;;;;;;;;;;5033711;28;20414;-71
2022/08/13 06:09:35;;;;;;;1.60;1.60;;;;;;;;;;5033425;28;20398;-71
2022/08/13 06:12:01;;;;;;;1.63;1.63;;;;;;;;;;5033320;28;20757;-71
2022/08/13 06:14:33;;;;;;;7.20;6.80;;;;;;;;;;5033386;28;20413;-71
2022/08/13 06:17:00;;;;;;;2.30;1.97;;;;;;;;;;5033180;28;20466;-71
2022/08/13 06:19:27;;;;;;;1.57;1.57;;;;;;;;;;5033293;28;20904;-71
2022/08/13 06:21:55;;;;;;;1.53;1.53;;;;;;;;;;5033239;28;20775;-74
2022/08/13 06:24:23;;;;;;;2.03;2.03;;;;;;;;;;5033329;28;20902;-71
2022/08/13 06:26:51;;;;;;;1.60;1.60;;;;;;;;;;5033155;28;20414;-71
2022/08/13 06:29:18;;;;;;;3.07;1.63;;;;;;;;;;5033115;28;20392;-70
2022/08/13 06:31:46;;;;;;;5.57;5.27;;;;;;;;;;5033102;28;20879;-68
2022/08/13 06:34:12;;;;;;;1.97;1.87;;;;;;;;;;5033037;28;20895;-68
2022/08/13 06:36:38;;;;;;;3.47;3.37;;;;;;;;;;5033286;28;20478;-71
2022/08/13 06:39:05;;;;;;;2.20;2.00;;;;;;;;;;5033321;28;20470;-71
2022/08/13 06:41:34;;;;;;;1.67;1.67;;;;;;;;;;5032975;28;20414;-70
2022/08/13 06:44:01;;;;;;;3.00;2.13;;;;;;;;;;5032860;28;20513;-70
2022/08/13 06:46:28;;;;;;;2.30;2.00;;;;;;;;;;5033034;28;20481;-70
2022/08/13 06:48:58;;;;;;;6.63;2.13;;;;;;;;;;5033114;28;20881;-70
2022/08/13 06:51:25;;;;;;;1.87;1.77;;;;;;;;;;5034486;28;20922;-70
2022/08/13 06:53:52;;;;;;;1.63;1.53;;;;;;;;;;5037021;28;20400;-70
2022/08/13 06:56:19;;;;;;;3.27;1.60;;;;;;;;;;5036917;28;20467;-72
2022/08/13 06:58:46;;;;;;;4.77;1.83;;;;;;;;;;5036683;28;20414;-73
2022/08/13 07:01:19;;;;;;;3.90;1.87;;;;;;;;;;5036701;28;20798;-71
2022/08/13 07:03:46;;;;;;;2.73;1.83;;;;;;;;;;5018889;28;20418;-70
2022/08/13 07:06:16;;;;;;;2.23;2.13;;;;;;;;;;5036521;28;20498;-70
2022/08/13 07:08:43;;;;;;;2.07;1.53;;;;;;;;;;5036711;28;20428;-72
2022/08/13 07:11:21;;;;;;;1.80;1.80;;;;;;;;;;5036499;28;20468;-71
2022/08/13 07:13:49;;;;;;;2.13;1.90;;;;;;;;;;5036414;28;20447;-74
2022/08/13 07:16:16;;;;;;;4.00;1.87;;;;;;;;;;5036532;28;20461;-74
2022/08/13 07:18:43;;;;;;;2.43;2.23;;;;;;;;;;5036421;28;20397;-76
2022/08/13 07:21:10;;;;;;;2.43;2.27;;;;;;;;;;5036234;28;20491;-70
2022/08/13 07:23:37;;;;;;;1.80;1.70;;;;;;;;;;5036272;28;20467;-72
2022/08/13 07:26:03;;;;;;;2.10;2.00;;;;;;;;;;5036110;28;20887;-71
2022/08/13 07:28:30;;;;;;;4.10;2.40;;;;;;;;;;5036253;28;20396;-70
2022/08/13 07:30:57;;;;;;;2.30;1.77;;;;;;;;;;5036115;28;20784;-70
2022/08/13 07:33:23;;;;;;;2.50;2.40;;;;;;;;;;5035991;28;20454;-70
2022/08/13 07:35:49;;;;;;;5.70;1.70;;;;;;;;;;5035904;28;20470;-71
2022/08/13 07:38:15;;;;;;;3.70;3.40;;;;;;;;;;5035940;28;20928;-70
2022/08/13 07:40:42;;;;;;;2.33;2.23;;;;;;;;;;5036125;28;20437;-70
2022/08/13 07:43:08;;;;;;;8.53;2.23;;;;;;;;;;5035589;28;20466;-70
2022/08/13 07:45:34;;;;;;;2.10;2.00;;;;;;;;;;5035816;28;20421;-71
2022/08/13 07:48:01;;;;;;;6.43;2.23;;;;;;;;;;5035816;28;20409;-70
2022/08/13 07:50:27;;;;;;;4.00;2.13;;;;;;;;;;5035747;28;20487;-71
2022/08/13 07:52:58;;;;;;;1.83;1.83;;;;;;;;;;5035600;28;20406;-70
2022/08/13 07:55:25;;;;;;;2.07;1.97;;;;;;;;;;5017937;28;20465;-72
2022/08/13 07:57:52;;;;;;;2.67;1.70;;;;;;;;;;5017874;28;20476;-71
2022/08/13 08:00:24;;;;;;;1.70;1.70;;;;;;;;;;5035568;28;20410;-71
2022/08/13 08:02:54;;;;;;;2.30;1.87;;;;;;;;;;5035138;28;20457;-71
2022/08/13 08:05:22;;;;;;;1.93;1.80;;;;;;;;;;5035306;28;20418;-70
2022/08/13 08:07:50;;;;;;;1.90;1.80;;;;;;;;;;5035421;28;20898;-71
2022/08/13 08:10:18;;;;;;;1.90;1.90;;;;;;;;;;5035366;28;20441;-74
2022/08/13 08:12:44;;;;;;;1.70;1.70;;;;;;;;;;5035486;28;20441;-70
2022/08/13 08:15:11;;;;;;;3.97;2.30;;;;;;;;;;5035151;28;20464;-70
2022/08/13 08:17:37;;;;;;;2.10;1.90;;;;;;;;;;5035546;28;20406;-72
2022/08/13 08:20:04;;;;;;;2.73;2.00;;;;;;;;;;5035176;28;20409;-72
2022/08/13 08:22:30;;;;;;;2.00;1.90;;;;;;;;;;5035205;28;20909;-70
2022/08/13 08:24:57;;;;;;;3.57;1.77;;;;;;;;;;5035071;28;20455;-70
2022/08/13 08:27:24;;;;;;;1.83;1.70;;;;;;;;;;5035064;28;20410;-71
2022/08/13 08:29:51;;;;;;;1.77;1.67;;;;;;;;;;5035039;28;20431;-70
2022/08/13 08:32:18;;;;;;;1.60;1.60;;;;;;;;;;5034955;28;20394;-70
2022/08/13 08:34:45;;;;;;;2.00;1.87;;;;;;;;;;5034928;28;20412;-71
2022/08/13 08:43:01;;;;;;;1.60;1.60;;;;;;;;;;5034695;28;20496;-70
2022/08/13 08:45:28;;;;;;;2.50;2.40;;;;;;;;;;5034740;28;20427;-71
2022/08/13 08:47:54;;;;;;;1.53;1.53;;;;;;;;;;5034921;28;20414;-71
2022/08/13 08:50:22;;;;;;;4.90;1.80;;;;;;;;;;5034605;28;20410;-70
2022/08/13 08:55:36;;;;;;;2.10;2.00;;;;;;;;;;5034485;28;20500;-71
2022/08/13 08:58:06;;;;;;;9.03;2.00;;;;;;;;;;5034507;28;20406;-72
2022/08/13 09:00:33;;;;;;;1.67;1.57;;;;;;;;;;5034394;28;20922;-70
2022/08/13 09:03:00;;;;;;;2.00;1.90;;;;;;;;;;5034368;28;20417;-71
2022/08/13 09:05:26;;;;;;;1.50;1.50;;;;;;;;;;5034463;28;20401;-72
2022/08/13 09:07:53;;;;;;;2.80;2.63;;;;;;;;;;5034381;28;20905;-75
2022/08/13 09:10:20;;;;;;;2.43;2.20;;;;;;;;;;5034475;28;20450;-74
2022/08/13 09:12:46;;;;;;;1.70;1.70;;;;;;;;;;5034214;28;20463;-71
2022/08/13 09:15:13;;;;;;;1.70;1.60;;;;;;;;;;5033646;28;20479;-70
2022/08/13 09:17:39;;;;;;;2.00;1.77;;;;;;;;;;5034210;28;20887;-75
2022/08/13 09:20:12;;;;;;;1.70;1.60;;;;;;;;;;5034434;28;20427;-70
2022/08/13 09:22:40;;;;;;;1.70;1.70;;;;;;;;;;5034019;28;20993;-71
2022/08/13 09:25:07;;;;;;;3.13;1.80;;;;;;;;;;5034102;28;20539;-72
2022/08/13 09:27:35;;;;;;;3.07;1.80;;;;;;;;;;5033987;28;20408;-76
2022/08/13 09:30:02;;;;;;;4.93;1.60;;;;;;;;;;5033887;28;20403;-70
2022/08/13 09:32:29;;;;;;;1.73;1.63;;;;;;;;;;5033183;28;20417;-69
2022/08/13 09:34:55;;;;;;;1.70;1.70;;;;;;;;;;5033998;28;20460;-70
2022/08/13 09:37:23;;;;;;;1.97;1.87;;;;;;;;;;5033701;28;20421;-69
2022/08/13 09:40:01;;;;;;;2.70;1.87;;;;;;;;;;5033756;28;20960;-72
2022/08/13 09:42:28;;;;;;;2.30;1.60;;;;;;;;;;5033484;28;20485;-72
2022/08/13 09:44:56;;;;;;;4.33;1.60;;;;;;;;;;5033601;28;20404;-72
2022/08/13 09:47:22;;;;;;;3.13;1.50;;;;;;;;;;5033864;28;20439;-71
2022/08/13 09:49:49;;;;;;;5.40;1.50;;;;;;;;;;5033697;28;20414;-71
2022/08/13 09:52:15;;;;;;;1.80;1.80;;;;;;;;;;5033733;28;20413;-71
2022/08/13 09:54:42;;;;;;;2.23;2.20;;;;;;;;;;5033688;28;20399;-70
2022/08/13 09:57:08;;;;;;;1.70;1.70;;;;;;;;;;5033421;28;20473;-71
2022/08/13 09:59:34;;;;;;;2.50;2.30;;;;;;;;;;5033472;28;20772;-71
2022/08/13 10:02:05;;;;;;;2.00;1.50;;;;;;;;;;5033448;28;20582;-70
2022/08/13 10:04:32;;;;;;;1.60;1.60;;;;;;;;;;5033405;28;20404;-70
2022/08/13 10:06:59;;;;;;;2.53;1.60;;;;;;;;;;5033333;28;20503;-71
2022/08/13 10:09:28;;;;;;;2.30;1.50;;;;;;;;;;5015506;28;20438;-71
2022/08/13 10:11:54;;;;;;;1.67;1.67;;;;;;;;;;5033067;28;20414;-71
2022/08/13 10:14:20;;;;;;;1.40;1.30;;;;;;;;;;5033113;28;20410;-71
2022/08/13 10:16:47;;;;;;;3.50;1.53;;;;;;;;;;5033543;28;20475;-71
2022/08/13 10:19:13;;;;;;;2.70;1.40;;;;;;;;;;5033223;28;20400;-71
2022/08/13 10:21:39;;;;;;;1.47;1.47;;;;;;;;;;5033290;28;20406;-70
2022/08/13 10:24:05;;;;;;;9.83;1.57;;;;;;;;;;5033205;28;20755;-70
2022/08/13 10:26:31;;;;;;;1.53;1.43;;;;;;;;;;5034968;28;20407;-70
2022/08/13 10:28:59;;;;;;;1.53;1.53;;;;;;;;;;5037360;28;20430;-69
2022/08/13 10:31:28;;;;;;;1.80;1.70;;;;;;;;;;5037481;28;20411;-69
2022/08/13 10:33:54;;;;;;;2.47;2.30;;;;;;;;;;5037170;28;20813;-69
2022/08/13 10:36:21;;;;;;;5.20;1.97;;;;;;;;;;5037055;28;20474;-69
2022/08/13 10:38:47;;;;;;;1.50;1.40;;;;;;;;;;5037101;28;20406;-70
2022/08/13 10:41:13;;;;;;;2.27;1.90;;;;;;;;;;5036986;28;20948;-67
2022/08/13 10:43:39;;;;;;;3.23;1.60;;;;;;;;;;5036841;28;20554;-70
2022/08/13 10:46:06;;;;;;;1.53;1.50;;;;;;;;;;5037194;28;20502;-69
2022/08/13 10:48:33;;;;;;;1.60;1.57;;;;;;;;;;5036861;28;20396;-68
2022/08/13 10:50:59;;;;;;;4.67;1.70;;;;;;;;;;5036901;28;20435;-68
2022/08/13 10:56:11;;;;;;;1.90;1.70;;;;;;;;;;5036865;28;20532;-70
2022/08/13 10:58:37;;;;;;;2.80;1.30;;;;;;;;;;5036736;28;20458;-74
2022/08/13 11:01:03;;;;;;;1.50;1.40;;;;;;;;;;5036611;28;20877;-71
2022/08/13 11:03:33;;;;;;;3.00;2.87;;;;;;;;;;5036651;28;20404;-71
2022/08/13 11:06:00;;;;;;;2.40;1.60;;;;;;;;;;5036793;28;20778;-78
2022/08/13 11:08:37;;;;;;;1.20;1.20;;;;;;;;;;5036785;28;20404;-70
2022/08/13 11:11:04;;;;;;;2.80;1.77;;;;;;;;;;5036592;28;20400;-72
2022/08/13 11:13:33;;;;;;;3.30;1.50;;;;;;;;;;5036487;28;20408;-70
2022/08/13 11:16:02;;;;;;;1.53;1.53;;;;;;;;;;5036357;28;20467;-73
2022/08/13 11:18:28;;;;;;;4.30;1.40;;;;;;;;;;5036478;28;20412;-70
2022/08/13 11:21:06;;;;;;;2.10;1.40;;;;;;;;;;5036301;28;20396;-70
2022/08/13 11:23:32;;;;;;;2.77;1.63;;;;;;;;;;5036276;28;20743;-70
2022/08/13 11:25:58;;;;;;;1.17;1.17;;;;;;;;;;5036097;28;20454;-72
2022/08/13 11:28:24;;;;;;;2.90;1.80;;;;;;;;;;5036209;28;20412;-70
2022/08/13 11:30:51;;;;;;;1.43;1.37;;;;;;;;;;5036102;28;20400;-70
2022/08/13 11:33:18;;;;;;;1.90;1.33;;;;;;;;;;5036138;28;20405;-68
2022/08/13 11:35:44;;;;;;;2.00;1.20;;;;;;;;;;5036167;28;20522;-71
2022/08/13 11:38:13;;;;;;;2.57;1.63;;;;;;;;;;5035526;28;20411;-69
2022/08/13 11:40:39;;;;;;;1.60;1.50;;;;;;;;;;5035970;28;20404;-69
2022/08/13 11:43:05;;;;;;;2.00;1.30;;;;;;;;;;5035828;28;20507;-70
2022/08/13 11:45:31;;;;;;;1.30;1.30;;;;;;;;;;5035787;28;20412;-70
2022/08/13 11:47:57;;;;;;;1.40;1.30;;;;;;;;;;5035790;28;20404;-72
2022/08/13 11:50:23;;;;;;;1.43;1.33;;;;;;;;;;5035791;28;20891;-69
2022/08/13 11:52:49;;;;;;;1.10;1.10;;;;;;;;;;5035655;28;20414;-70
2022/08/13 11:55:15;;;;;;;1.77;1.70;;;;;;;;;;5035597;28;20558;-69
2022/08/13 11:57:41;;;;;;;2.60;1.37;;;;;;;;;;5035556;28;20408;-69
2022/08/13 12:00:07;;;;;;;1.80;1.70;;;;;;;;;;5035609;28;20816;-69
2022/08/13 12:02:33;;;;;;;1.47;1.37;;;;;;;;;;5035518;28;20169;-70
2022/08/13 12:05:00;;;;;;;1.50;1.50;;;;;;;;;;5035492;28;20875;-68
2022/08/13 12:07:26;;;;;;;2.33;1.23;;;;;;;;;;5035481;28;20511;-69
2022/08/13 12:09:53;;;;;;;5.60;1.53;;;;;;;;;;5035416;28;20404;-69
2022/08/13 12:12:19;;;;;;;6.10;1.40;;;;;;;;;;5035485;28;20415;-70
2022/08/13 12:14:45;;;;;;;4.73;1.70;;;;;;;;;;5035589;28;20400;-71
2022/08/13 12:17:11;;;;;;;1.80;1.40;;;;;;;;;;5035530;28;20825;-71
2022/08/13 12:19:37;;;;;;;3.40;1.30;;;;;;;;;;5035268;28;20404;-72
2022/08/13 12:22:03;;;;;;;2.53;1.40;;;;;;;;;;5035213;28;20419;-71
2022/08/13 12:24:29;;;;;;;2.10;1.40;;;;;;;;;;5035402;28;20400;-70
2022/08/13 12:26:55;;;;;;;5.23;1.40;;;;;;;;;;5035087;28;20422;-72
2022/08/13 12:29:21;;;;;;;1.27;1.20;;;;;;;;;;5035012;28;20408;-71
2022/08/13 12:31:47;;;;;;;1.63;1.53;;;;;;;;;;5035017;28;20177;-70
2022/08/13 12:34:12;;;;;;;5.57;1.50;;;;;;;;;;5034817;28;20801;-70
2022/08/13 12:36:38;;;;;;;1.30;1.30;;;;;;;;;;5034793;28;20495;-70
2022/08/13 12:39:04;;;;;;;1.43;1.43;;;;;;;;;;5034888;28;20404;-71
2022/08/13 12:41:31;;;;;;;1.10;1.10;;;;;;;;;;5034824;28;20487;-69
2022/08/13 12:43:57;;;;;;;1.70;1.60;;;;;;;;;;5034564;28;20546;-71
2022/08/13 12:46:23;;;;;;;1.30;1.30;;;;;;;;;;5034772;28;20510;-70
2022/08/13 12:48:49;;;;;;;1.57;1.30;;;;;;;;;;5033874;28;20462;-71
2022/08/13 12:51:15;;;;;;;1.30;1.30;;;;;;;;;;5034620;28;20519;-71
2022/08/13 12:53:41;;;;;;;1.70;1.50;;;;;;;;;;5034447;28;20437;-73
2022/08/13 12:56:07;;;;;;;2.43;1.47;;;;;;;;;;5034461;28;20494;-70
2022/08/13 12:58:33;;;;;;;1.23;1.23;;;;;;;;;;5034649;28;20754;-70
2022/08/13 13:00:59;;;;;;;3.13;1.13;;;;;;;;;;5034476;28;20412;-70
2022/08/13 13:03:26;;;;;;;1.33;1.33;;;;;;;;;;5034372;28;20647;-71
2022/08/13 13:05:53;;;;;;;1.90;1.13;;;;;;;;;;5034312;28;20491;-71
2022/08/13 13:08:20;;;;;;;2.87;1.07;;;;;;;;;;5034312;28;20405;-69
2022/08/13 13:10:47;;;;;;;2.10;1.30;;;;;;;;;;5034178;28;20403;-68
2022/08/13 13:13:16;;;;;;;4.50;1.10;;;;;;;;;;5034469;28;20404;-69
2022/08/13 13:15:43;;;;;;;1.20;1.20;;;;;;;;;;5034146;28;20459;-69
2022/08/13 13:18:10;;;;;;;1.47;1.40;;;;;;;;;;5034137;28;20408;-70
2022/08/13 13:20:36;;;;;;;1.40;1.30;;;;;;;;;;5034039;28;20761;-71
2022/08/13 13:23:02;;;;;;;1.70;1.27;;;;;;;;;;5034017;28;20404;-69
2022/08/13 13:25:28;;;;;;;4.67;4.37;;;;;;;;;;5034034;28;20915;-63
2022/08/13 13:27:56;;;;;;;2.10;1.50;;;;;;;;;;5033914;28;20178;-68
2022/08/13 13:30:22;;;;;;;1.10;1.10;;;;;;;;;;5033983;28;20404;-69
2022/08/13 13:32:48;;;;;;;9.73;1.50;;;;;;;;;;5033907;28;20883;-63
2022/08/13 13:35:14;;;;;;;3.50;2.30;;;;;;;;;;5033866;28;20415;-64
2022/08/13 13:37:42;;;;;;;2.20;2.10;;;;;;;;;;5033734;28;20404;-63
2022/08/13 13:40:09;;;;;;;2.33;2.20;;;;;;;;;;5033780;28;20401;-62
2022/08/13 13:42:35;;;;;;;3.10;1.47;;;;;;;;;;5033558;28;20467;-64
2022/08/13 13:45:01;;;;;;;1.10;1.10;;;;;;;;;;5033762;28;20392;-64
2022/08/13 13:47:29;;;;;;;1.13;1.13;;;;;;;;;;5033605;28;20448;-65
2022/08/13 13:49:55;;;;;;;2.83;1.27;;;;;;;;;;5033928;28;20392;-64
2022/08/13 13:52:22;;;;;;;3.70;1.13;;;;;;;;;;5033483;28;20899;-64
2022/08/13 13:54:50;;;;;;;4.57;1.07;;;;;;;;;;5033675;28;20491;-65
2022/08/13 13:57:16;;;;;;;3.73;1.40;;;;;;;;;;5033492;28;20491;-63
2022/08/13 13:59:42;;;;;;;1.07;1.03;;;;;;;;;;5033347;28;20443;-65
2022/08/13 14:02:08;;;;;;;1.80;1.20;;;;;;;;;;5033511;28;20899;-65
2022/08/13 14:04:34;;;;;;;2.40;0.90;;;;;;;;;;5033540;28;20466;-65
2022/08/13 14:07:03;;;;;;;1.03;1.03;;;;;;;;;;5033416;28;20435;-66
2022/08/13 14:09:30;;;;;;;1.10;0.83;;;;;;;;;;5033361;28;20403;-65
2022/08/13 14:11:56;;;;;;;2.17;1.10;;;;;;;;;;5033396;28;20518;-66
2022/08/13 14:14:22;;;;;;;1.03;1.03;;;;;;;;;;5033403;28;20408;-64
2022/08/13 14:16:48;;;;;;;0.83;0.83;;;;;;;;;;5033180;28;20586;-65
2022/08/13 14:19:17;;;;;;;4.97;0.90;;;;;;;;;;5033548;28;20404;-65
2022/08/13 14:21:43;;;;;;;0.80;0.80;;;;;;;;;;5033277;28;20399;-65
2022/08/13 14:24:09;;;;;;;1.10;0.93;;;;;;;;;;5033277;28;20408;-64
2022/08/13 14:26:37;;;;;;;1.70;0.83;;;;;;;;;;5033242;28;20422;-64
2022/08/13 14:29:03;;;;;;;1.00;1.00;;;;;;;;;;5033277;28;20471;-66
2022/08/13 14:31:29;;;;;;;0.90;0.90;;;;;;;;;;5033193;28;20409;-66
2022/08/13 14:33:55;;;;;;;1.03;1.03;;;;;;;;;;5033266;28;20474;-68
2022/08/13 14:36:24;;;;;;;1.07;1.07;;;;;;;;;;5033103;28;20982;-67
2022/08/13 14:38:51;;;;;;;0.90;0.90;;;;;;;;;;5033224;28;20472;-68
2022/08/13 14:41:16;;;;;;;2.00;1.20;;;;;;;;;;5033185;28;20539;-66
2022/08/13 14:43:45;;;;;;;1.20;1.20;;;;;;;;;;5033022;28;20464;-66
2022/08/13 14:46:14;;;;;;;1.40;1.30;;;;;;;;;;5033008;28;20404;-67
2022/08/13 14:48:40;;;;;;;1.53;1.00;;;;;;;;;;5033063;28;20405;-66
2022/08/13 14:51:07;;;;;;;1.20;1.20;;;;;;;;;;5033048;28;20414;-67
2022/08/13 14:53:33;;;;;;;1.13;1.13;;;;;;;;;;5033054;28;20888;-68
2022/08/13 14:56:00;;;;;;;1.27;1.27;;;;;;;;;;5032824;28;20557;-67
2022/08/13 14:58:28;;;;;;;2.70;1.60;;;;;;;;;;5033231;28;20399;-69
2022/08/13 15:00:55;;;;;;;1.23;1.10;;;;;;;;;;5033276;28;20415;-68
2022/08/13 15:03:22;;;;;;;1.20;1.20;;;;;;;;;;5033011;28;20400;-67
2022/08/13 15:05:49;;;;;;;3.10;1.03;;;;;;;;;;5032878;28;20400;-68
2022/08/13 15:08:17;;;;;;;5.70;1.20;;;;;;;;;;5032867;28;20450;-67